Accueil
METAR-TAF:

METAR-TAF

Aéroports :

Fairford, Angleterre

latitude: 51-41N, longitude: 001-47W, altitude: 87 m

Observation

Le bulletin a été fait il y a 12 minutes, à 17:16 UTC
Vent 9 kt de ouest
Température 15°C
Humidité 77%
Pression 1015 hPa
Visibilité 10 km ou plus
Nuages épars à une hauteur de 2300 ft
Nuages épars à une hauteur de 3200 ft

METAR: EGVA 211716Z AUTO 26009KT 9999 SCT023 SCT032 15/11 A2998 RMK AO2 SLP155 $

Heure: 18:28 (17:28 UTC)


TAF: absent

Observations et prévisions météorologiques de plus de 4000 aéroports (messages METAR et TAF).

Les stations disponibles sont représentées par des disques jaunes et rouges sur la carte.

Passer la souris dessus pour voir le nom de la station.

Cliquer dessus pour voir les observations et prévisions météorologiques.

Pour changer de carte: cliquez sur les boutons verts avec une croix noire pour zoomer, sur le bouton vert avec un tiret pour effectuer un zoom arrière, ou sur les flèches vertes pour les cartes adjacentes.


METAR-TAF: